sensor_id;sensor_type;location;lat;lon;timestamp;pressure;altitude;pressure_sealevel;temperature;humidity
83246;BME280;73140;46.754;17.714;2024-02-04T00:01:55;100093.44;;;8.67;70.04
83246;BME280;73140;46.754;17.714;2024-02-04T00:04:21;100161.06;;;8.97;70.12
83246;BME280;73140;46.754;17.714;2024-02-04T00:06:50;100147.25;;;8.73;70.97
83246;BME280;73140;46.754;17.714;2024-02-04T00:09:16;100080.44;;;8.40;70.86
83246;BME280;73140;46.754;17.714;2024-02-04T00:11:44;100180.13;;;8.86;71.25
83246;BME280;73140;46.754;17.714;2024-02-04T00:14:10;100154.75;;;8.58;71.37
83246;BME280;73140;46.754;17.714;2024-02-04T00:16:36;100095.13;;;8.30;71.39
83246;BME280;73140;46.754;17.714;2024-02-04T00:19:02;100158.50;;;8.66;72.23
83246;BME280;73140;46.754;17.714;2024-02-04T00:21:28;100113.78;;;8.38;71.83
83246;BME280;73140;46.754;17.714;2024-02-04T00:23:55;100150.31;;;8.57;71.02
83246;BME280;73140;46.754;17.714;2024-02-04T00:26:21;100156.44;;;8.56;71.91
83246;BME280;73140;46.754;17.714;2024-02-04T00:28:47;100137.63;;;8.42;71.18
83246;BME280;73140;46.754;17.714;2024-02-04T00:31:13;100113.53;;;8.29;71.65
83246;BME280;73140;46.754;17.714;2024-02-04T00:33:39;100132.78;;;8.28;72.07
83246;BME280;73140;46.754;17.714;2024-02-04T00:36:06;100169.22;;;8.41;71.98
83246;BME280;73140;46.754;17.714;2024-02-04T00:38:32;100147.34;;;8.45;72.19
83246;BME280;73140;46.754;17.714;2024-02-04T00:40:59;100068.97;;;8.06;71.56
83246;BME280;73140;46.754;17.714;2024-02-04T00:43:25;100116.25;;;8.32;72.16
83246;BME280;73140;46.754;17.714;2024-02-04T00:45:51;100167.00;;;8.56;71.52
83246;BME280;73140;46.754;17.714;2024-02-04T00:48:18;100151.16;;;8.56;71.98
83246;BME280;73140;46.754;17.714;2024-02-04T00:50:44;100155.41;;;8.49;71.39
83246;BME280;73140;46.754;17.714;2024-02-04T00:53:10;100161.84;;;8.61;71.67
83246;BME280;73140;46.754;17.714;2024-02-04T00:55:36;100170.66;;;8.61;71.20
83246;BME280;73140;46.754;17.714;2024-02-04T00:58:03;100150.31;;;8.57;71.44
83246;BME280;73140;46.754;17.714;2024-02-04T01:00:29;100149.56;;;8.61;71.08
83246;BME280;73140;46.754;17.714;2024-02-04T01:02:55;100120.63;;;8.31;71.38
83246;BME280;73140;46.754;17.714;2024-02-04T01:05:21;100101.44;;;8.37;71.15
83246;BME280;73140;46.754;17.714;2024-02-04T01:07:47;100168.94;;;8.63;70.48
83246;BME280;73140;46.754;17.714;2024-02-04T01:10:13;100139.09;;;8.64;70.67
83246;BME280;73140;46.754;17.714;2024-02-04T01:12:39;100173.75;;;8.78;71.05
83246;BME280;73140;46.754;17.714;2024-02-04T01:15:08;100126.41;;;8.51;71.60
83246;BME280;73140;46.754;17.714;2024-02-04T01:17:33;100130.00;;;8.53;71.97
83246;BME280;73140;46.754;17.714;2024-02-04T01:19:59;100073.19;;;8.31;70.99
83246;BME280;73140;46.754;17.714;2024-02-04T01:22:26;100124.09;;;8.62;71.13
83246;BME280;73140;46.754;17.714;2024-02-04T01:24:53;100102.63;;;8.48;71.19
83246;BME280;73140;46.754;17.714;2024-02-04T01:27:19;100125.50;;;8.49;71.12
83246;BME280;73140;46.754;17.714;2024-02-04T01:29:45;100132.16;;;8.35;72.15
83246;BME280;73140;46.754;17.714;2024-02-04T01:32:12;100136.09;;;8.21;71.77
83246;BME280;73140;46.754;17.714;2024-02-04T01:34:38;100104.47;;;8.21;71.43
83246;BME280;73140;46.754;17.714;2024-02-04T01:37:04;100134.88;;;8.38;73.00
83246;BME280;73140;46.754;17.714;2024-02-04T01:39:30;100110.78;;;8.26;72.72
83246;BME280;73140;46.754;17.714;2024-02-04T01:41:56;100139.94;;;8.32;72.79
83246;BME280;73140;46.754;17.714;2024-02-04T01:44:22;100127.50;;;8.28;73.34
83246;BME280;73140;46.754;17.714;2024-02-04T01:46:49;100089.50;;;8.18;73.62
83246;BME280;73140;46.754;17.714;2024-02-04T01:49:17;100111.16;;;8.38;72.25
83246;BME280;73140;46.754;17.714;2024-02-04T01:51:43;100129.09;;;8.52;72.19
83246;BME280;73140;46.754;17.714;2024-02-04T01:54:09;100127.50;;;8.59;71.35
83246;BME280;73140;46.754;17.714;2024-02-04T01:56:35;100127.56;;;8.61;71.76
83246;BME280;73140;46.754;17.714;2024-02-04T01:59:02;100122.25;;;8.59;71.78
83246;BME280;73140;46.754;17.714;2024-02-04T02:01:28;100116.38;;;8.69;71.22
83246;BME280;73140;46.754;17.714;2024-02-04T02:03:54;100105.75;;;8.66;71.34
83246;BME280;73140;46.754;17.714;2024-02-04T02:06:23;100096.75;;;8.58;71.21
83246;BME280;73140;46.754;17.714;2024-02-04T02:08:49;100126.34;;;8.82;71.05
83246;BME280;73140;46.754;17.714;2024-02-04T02:11:21;100088.53;;;8.80;70.41
83246;BME280;73140;46.754;17.714;2024-02-04T02:13:55;100127.84;;;9.06;70.07
83246;BME280;73140;46.754;17.714;2024-02-04T02:16:26;100074.69;;;8.90;69.61
83246;BME280;73140;46.754;17.714;2024-02-04T02:18:56;100120.19;;;9.16;69.41
83246;BME280;73140;46.754;17.714;2024-02-04T02:21:38;100092.72;;;9.10;68.59
83246;BME280;73140;46.754;17.714;2024-02-04T02:24:11;100042.34;;;8.97;68.58
83246;BME280;73140;46.754;17.714;2024-02-04T02:26:41;100110.03;;;9.33;68.86
83246;BME280;73140;46.754;17.714;2024-02-04T02:29:07;100108.06;;;9.26;68.59
83246;BME280;73140;46.754;17.714;2024-02-04T02:31:34;100123.00;;;9.24;68.57
83246;BME280;73140;46.754;17.714;2024-02-04T02:34:00;100120.31;;;9.22;69.55
83246;BME280;73140;46.754;17.714;2024-02-04T02:36:29;100090.63;;;8.93;69.48
83246;BME280;73140;46.754;17.714;2024-02-04T02:39:04;100112.88;;;9.05;69.60
83246;BME280;73140;46.754;17.714;2024-02-04T02:41:36;100149.03;;;9.09;68.97
83246;BME280;73140;46.754;17.714;2024-02-04T02:44:07;100122.34;;;8.96;69.68
83246;BME280;73140;46.754;17.714;2024-02-04T02:46:34;100132.59;;;8.84;71.24
83246;BME280;73140;46.754;17.714;2024-02-04T02:49:01;100164.31;;;8.87;70.75
83246;BME280;73140;46.754;17.714;2024-02-04T02:51:28;100139.34;;;8.73;70.91
83246;BME280;73140;46.754;17.714;2024-02-04T02:53:54;100139.84;;;8.60;72.14
83246;BME280;73140;46.754;17.714;2024-02-04T02:56:20;100137.78;;;8.48;71.61
83246;BME280;73140;46.754;17.714;2024-02-04T02:58:46;100138.75;;;8.52;71.31
83246;BME280;73140;46.754;17.714;2024-02-04T03:01:13;100122.59;;;8.40;71.58
83246;BME280;73140;46.754;17.714;2024-02-04T03:03:39;100142.00;;;8.42;72.98
83246;BME280;73140;46.754;17.714;2024-02-04T03:06:05;100139.19;;;8.36;72.50
83246;BME280;73140;46.754;17.714;2024-02-04T03:08:32;100140.22;;;8.41;72.70
83246;BME280;73140;46.754;17.714;2024-02-04T03:10:58;100132.16;;;8.35;73.07
83246;BME280;73140;46.754;17.714;2024-02-04T03:13:24;100074.75;;;7.93;72.35
83246;BME280;73140;46.754;17.714;2024-02-04T03:15:50;100139.13;;;8.33;72.26
83246;BME280;73140;46.754;17.714;2024-02-04T03:18:17;100098.16;;;8.14;72.21
83246;BME280;73140;46.754;17.714;2024-02-04T03:20:43;100091.94;;;8.12;72.73
83246;BME280;73140;46.754;17.714;2024-02-04T03:23:09;100106.34;;;8.25;72.37
83246;BME280;73140;46.754;17.714;2024-02-04T03:25:35;100117.34;;;8.40;72.71
83246;BME280;73140;46.754;17.714;2024-02-04T03:28:01;100070.22;;;8.19;72.05
83246;BME280;73140;46.754;17.714;2024-02-04T03:30:27;100128.97;;;8.46;72.10
83246;BME280;73140;46.754;17.714;2024-02-04T03:32:53;100135.97;;;8.46;72.36
83246;BME280;73140;46.754;17.714;2024-02-04T03:35:21;100104.03;;;8.35;71.47
83246;BME280;73140;46.754;17.714;2024-02-04T03:37:47;100064.13;;;8.22;72.01
83246;BME280;73140;46.754;17.714;2024-02-04T03:40:13;100116.69;;;8.48;71.86
83246;BME280;73140;46.754;17.714;2024-02-04T03:42:40;100118.06;;;8.67;71.62
83246;BME280;73140;46.754;17.714;2024-02-04T03:45:07;100120.88;;;8.73;71.53
83246;BME280;73140;46.754;17.714;2024-02-04T03:47:33;100108.28;;;8.63;71.23
83246;BME280;73140;46.754;17.714;2024-02-04T03:49:59;100135.22;;;8.51;71.60
83246;BME280;73140;46.754;17.714;2024-02-04T03:52:26;100058.00;;;8.23;71.59
83246;BME280;73140;46.754;17.714;2024-02-04T03:54:52;100107.97;;;8.51;71.99
83246;BME280;73140;46.754;17.714;2024-02-04T03:57:18;100106.06;;;8.45;72.42
83246;BME280;73140;46.754;17.714;2024-02-04T03:59:45;100128.13;;;8.49;72.76
83246;BME280;73140;46.754;17.714;2024-02-04T04:02:12;100051.97;;;8.27;72.32
83246;BME280;73140;46.754;17.714;2024-02-04T04:04:39;100080.69;;;8.49;71.37
83246;BME280;73140;46.754;17.714;2024-02-04T04:07:07;100039.91;;;8.35;70.78
83246;BME280;73140;46.754;17.714;2024-02-04T04:09:34;100082.59;;;8.54;70.71
83246;BME280;73140;46.754;17.714;2024-02-04T04:12:00;100030.84;;;8.25;71.39
83246;BME280;73140;46.754;17.714;2024-02-04T04:14:26;100122.38;;;8.64;72.10
83246;BME280;73140;46.754;17.714;2024-02-04T04:16:52;100119.59;;;8.59;71.22
83246;BME280;73140;46.754;17.714;2024-02-04T04:19:18;100114.34;;;8.59;70.94
83246;BME280;73140;46.754;17.714;2024-02-04T04:21:44;100127.28;;;8.50;72.07
83246;BME280;73140;46.754;17.714;2024-02-04T04:24:10;100107.75;;;8.12;73.21
83246;BME280;73140;46.754;17.714;2024-02-04T04:26:37;100148.59;;;8.28;72.62
83246;BME280;73140;46.754;17.714;2024-02-04T04:29:03;100148.56;;;8.26;73.00
83246;BME280;73140;46.754;17.714;2024-02-04T04:31:29;100068.97;;;7.75;73.15
83246;BME280;73140;46.754;17.714;2024-02-04T04:33:55;100154.59;;;8.22;74.30
83246;BME280;73140;46.754;17.714;2024-02-04T04:36:21;100159.78;;;8.19;74.02
83246;BME280;73140;46.754;17.714;2024-02-04T04:38:47;100126.94;;;8.06;74.88
83246;BME280;73140;46.754;17.714;2024-02-04T04:41:15;100118.47;;;7.87;74.91
83246;BME280;73140;46.754;17.714;2024-02-04T04:43:43;100086.47;;;7.45;76.17
83246;BME280;73140;46.754;17.714;2024-02-04T04:46:09;100155.28;;;7.57;78.37
83246;BME280;73140;46.754;17.714;2024-02-04T04:48:35;100137.53;;;7.50;78.75
83246;BME280;73140;46.754;17.714;2024-02-04T04:51:00;100134.44;;;7.63;77.38
83246;BME280;73140;46.754;17.714;2024-02-04T04:53:26;100099.53;;;7.40;77.64
83246;BME280;73140;46.754;17.714;2024-02-04T04:55:52;100120.97;;;7.54;78.23
83246;BME280;73140;46.754;17.714;2024-02-04T04:58:18;100150.75;;;7.81;77.17
83246;BME280;73140;46.754;17.714;2024-02-04T05:00:46;100095.91;;;7.37;79.57
83246;BME280;73140;46.754;17.714;2024-02-04T05:03:12;100140.59;;;7.35;79.86
83246;BME280;73140;46.754;17.714;2024-02-04T05:05:38;100149.47;;;7.39;80.04
83246;BME280;73140;46.754;17.714;2024-02-04T05:08:04;100095.91;;;7.08;80.69
83246;BME280;73140;46.754;17.714;2024-02-04T05:10:30;100156.31;;;7.34;81.68
83246;BME280;73140;46.754;17.714;2024-02-04T05:12:56;100086.66;;;6.94;82.45
83246;BME280;73140;46.754;17.714;2024-02-04T05:15:22;100153.16;;;7.17;82.40
83246;BME280;73140;46.754;17.714;2024-02-04T05:17:49;100092.22;;;6.77;83.29
83246;BME280;73140;46.754;17.714;2024-02-04T05:20:15;100088.53;;;6.72;82.96
83246;BME280;73140;46.754;17.714;2024-02-04T05:22:42;100094.03;;;6.78;82.66
83246;BME280;73140;46.754;17.714;2024-02-04T05:25:08;100159.94;;;7.10;84.10
83246;BME280;73140;46.754;17.714;2024-02-04T05:27:35;100142.50;;;7.12;83.30
83246;BME280;73140;46.754;17.714;2024-02-04T05:30:02;100148.91;;;7.22;82.80
83246;BME280;73140;46.754;17.714;2024-02-04T05:32:28;100146.53;;;7.30;83.39
83246;BME280;73140;46.754;17.714;2024-02-04T05:34:55;100145.56;;;7.83;81.85
83246;BME280;73140;46.754;17.714;2024-02-04T05:37:21;100109.59;;;8.15;78.48
83246;BME280;73140;46.754;17.714;2024-02-04T05:39:47;100048.81;;;8.40;76.21
83246;BME280;73140;46.754;17.714;2024-02-04T05:42:13;100123.38;;;9.03;74.98
83246;BME280;73140;46.754;17.714;2024-02-04T05:44:39;100108.56;;;9.10;73.89
83246;BME280;73140;46.754;17.714;2024-02-04T05:47:05;100110.81;;;9.29;73.21
83246;BME280;73140;46.754;17.714;2024-02-04T05:49:31;100097.53;;;9.26;72.77
83246;BME280;73140;46.754;17.714;2024-02-04T05:51:58;100080.72;;;9.21;73.90
83246;BME280;73140;46.754;17.714;2024-02-04T05:54:24;100099.63;;;9.40;73.02
83246;BME280;73140;46.754;17.714;2024-02-04T05:56:50;100088.03;;;9.34;73.33
83246;BME280;73140;46.754;17.714;2024-02-04T05:59:16;100092.06;;;9.57;72.87
83246;BME280;73140;46.754;17.714;2024-02-04T06:01:42;100098.41;;;9.64;72.96
83246;BME280;73140;46.754;17.714;2024-02-04T06:04:09;100072.13;;;9.71;71.77
83246;BME280;73140;46.754;17.714;2024-02-04T06:06:35;100092.53;;;9.78;71.41
83246;BME280;73140;46.754;17.714;2024-02-04T06:09:03;100103.63;;;10.03;70.70
83246;BME280;73140;46.754;17.714;2024-02-04T06:11:29;100091.06;;;9.92;71.49
83246;BME280;73140;46.754;17.714;2024-02-04T06:13:55;100102.09;;;9.72;72.35
83246;BME280;73140;46.754;17.714;2024-02-04T06:16:21;100104.56;;;9.64;73.79
83246;BME280;73140;46.754;17.714;2024-02-04T06:18:47;100093.78;;;9.55;74.12
83246;BME280;73140;46.754;17.714;2024-02-04T06:21:13;100100.78;;;9.53;74.13
83246;BME280;73140;46.754;17.714;2024-02-04T06:23:39;100129.03;;;9.57;74.53
83246;BME280;73140;46.754;17.714;2024-02-04T06:26:06;100032.75;;;9.02;75.89
83246;BME280;73140;46.754;17.714;2024-02-04T06:28:32;100099.41;;;9.31;75.16
83246;BME280;73140;46.754;17.714;2024-02-04T06:30:58;100097.97;;;9.44;74.24
83246;BME280;73140;46.754;17.714;2024-02-04T06:33:24;100105.94;;;9.47;74.15
83246;BME280;73140;46.754;17.714;2024-02-04T06:35:50;100106.06;;;9.53;73.96
83246;BME280;73140;46.754;17.714;2024-02-04T06:38:16;100165.38;;;10.08;71.21
83246;BME280;73140;46.754;17.714;2024-02-04T06:40:42;100150.97;;;9.93;71.39
83246;BME280;73140;46.754;17.714;2024-02-04T06:43:10;100160.88;;;9.63;73.48
83246;BME280;73140;46.754;17.714;2024-02-04T06:45:36;100136.16;;;9.22;73.42
83246;BME280;73140;46.754;17.714;2024-02-04T06:48:02;100122.16;;;8.90;74.64
83246;BME280;73140;46.754;17.714;2024-02-04T06:50:28;100180.97;;;8.85;76.45
83246;BME280;73140;46.754;17.714;2024-02-04T06:52:54;100140.81;;;8.62;75.30
83246;BME280;73140;46.754;17.714;2024-02-04T06:55:20;100127.28;;;8.50;77.34
83246;BME280;73140;46.754;17.714;2024-02-04T06:57:46;100169.97;;;8.68;78.32
83246;BME280;73140;46.754;17.714;2024-02-04T07:00:14;100156.38;;;8.53;78.42
83246;BME280;73140;46.754;17.714;2024-02-04T07:02:41;100153.25;;;8.36;80.73
83246;BME280;73140;46.754;17.714;2024-02-04T07:05:08;100107.03;;;7.86;80.32
83246;BME280;73140;46.754;17.714;2024-02-04T07:07:36;100195.94;;;8.23;80.75
83246;BME280;73140;46.754;17.714;2024-02-04T07:10:02;100111.84;;;7.71;82.88
83246;BME280;73140;46.754;17.714;2024-02-04T07:12:28;100133.00;;;7.74;82.88
83246;BME280;73140;46.754;17.714;2024-02-04T07:14:54;100112.03;;;7.77;83.03
83246;BME280;73140;46.754;17.714;2024-02-04T07:17:21;100189.69;;;8.21;82.06
83246;BME280;73140;46.754;17.714;2024-02-04T07:19:47;100189.84;;;8.27;83.22
83246;BME280;73140;46.754;17.714;2024-02-04T07:22:13;100198.97;;;8.68;80.28
83246;BME280;73140;46.754;17.714;2024-02-04T07:24:39;100217.31;;;8.96;80.68
83246;BME280;73140;46.754;17.714;2024-02-04T07:27:08;100228.13;;;9.06;82.09
83246;BME280;73140;46.754;17.714;2024-02-04T07:29:37;100245.84;;;9.11;78.91
83246;BME280;73140;46.754;17.714;2024-02-04T07:32:03;100190.28;;;9.05;77.34
83246;BME280;73140;46.754;17.714;2024-02-04T07:34:31;100160.16;;;8.97;74.74
83246;BME280;73140;46.754;17.714;2024-02-04T07:36:57;100226.44;;;9.43;75.07
83246;BME280;73140;46.754;17.714;2024-02-04T07:39:23;100204.13;;;9.31;75.52
83246;BME280;73140;46.754;17.714;2024-02-04T07:41:49;100207.06;;;9.43;77.00
83246;BME280;73140;46.754;17.714;2024-02-04T07:44:15;100200.63;;;9.32;74.31
83246;BME280;73140;46.754;17.714;2024-02-04T07:46:41;100232.50;;;9.41;74.09
83246;BME280;73140;46.754;17.714;2024-02-04T07:49:07;100231.47;;;9.34;74.65
83246;BME280;73140;46.754;17.714;2024-02-04T07:51:34;100156.75;;;9.01;74.57
83246;BME280;73140;46.754;17.714;2024-02-04T07:54:03;100176.88;;;9.32;74.51
83246;BME280;73140;46.754;17.714;2024-02-04T07:56:30;100215.41;;;9.61;75.06
83246;BME280;73140;46.754;17.714;2024-02-04T07:58:56;100193.59;;;9.68;73.44
83246;BME280;73140;46.754;17.714;2024-02-04T08:01:22;100197.75;;;9.97;72.68
83246;BME280;73140;46.754;17.714;2024-02-04T08:03:49;100165.94;;;9.93;71.45
83246;BME280;73140;46.754;17.714;2024-02-04T08:06:15;100226.63;;;10.27;72.09
83246;BME280;73140;46.754;17.714;2024-02-04T08:08:43;100158.31;;;10.07;72.37
83246;BME280;73140;46.754;17.714;2024-02-04T08:11:10;100124.50;;;9.90;72.11
83246;BME280;73140;46.754;17.714;2024-02-04T08:13:41;100190.75;;;10.40;72.17
83246;BME280;73140;46.754;17.714;2024-02-04T08:16:07;100171.94;;;10.25;70.94
83246;BME280;73140;46.754;17.714;2024-02-04T08:18:33;100109.13;;;9.71;72.12
83246;BME280;73140;46.754;17.714;2024-02-04T08:20:59;100083.34;;;9.61;71.89
83246;BME280;73140;46.754;17.714;2024-02-04T08:23:25;100185.66;;;10.09;73.25
83246;BME280;73140;46.754;17.714;2024-02-04T08:25:53;100147.50;;;9.94;72.58
83246;BME280;73140;46.754;17.714;2024-02-04T08:28:19;100201.56;;;10.52;71.16
83246;BME280;73140;46.754;17.714;2024-02-04T08:30:45;100169.34;;;10.28;71.07
83246;BME280;73140;46.754;17.714;2024-02-04T08:33:11;100117.03;;;10.13;69.54
83246;BME280;73140;46.754;17.714;2024-02-04T08:35:37;100197.38;;;10.62;70.28
83246;BME280;73140;46.754;17.714;2024-02-04T08:38:03;100181.25;;;10.50;71.30
83246;BME280;73140;46.754;17.714;2024-02-04T08:40:29;100203.94;;;10.82;72.67
83246;BME280;73140;46.754;17.714;2024-02-04T08:42:57;100128.41;;;10.53;70.88
83246;BME280;73140;46.754;17.714;2024-02-04T08:45:23;100202.78;;;11.16;71.43
83246;BME280;73140;46.754;17.714;2024-02-04T08:47:49;100172.91;;;11.26;70.19
83246;BME280;73140;46.754;17.714;2024-02-04T08:50:17;100174.13;;;11.45;71.42
83246;BME280;73140;46.754;17.714;2024-02-04T08:52:43;100150.28;;;11.46;69.69
83246;BME280;73140;46.754;17.714;2024-02-04T08:55:09;100146.16;;;11.63;69.88
83246;BME280;73140;46.754;17.714;2024-02-04T08:57:35;100152.69;;;11.87;69.28
83246;BME280;73140;46.754;17.714;2024-02-04T09:00:04;100125.03;;;11.68;69.39
83246;BME280;73140;46.754;17.714;2024-02-04T09:02:30;100169.34;;;11.78;68.31
83246;BME280;73140;46.754;17.714;2024-02-04T09:04:56;100197.69;;;11.82;69.42
83246;BME280;73140;46.754;17.714;2024-02-04T09:07:25;100144.47;;;11.70;69.49
83246;BME280;73140;46.754;17.714;2024-02-04T09:09:51;100169.28;;;11.72;69.54
83246;BME280;73140;46.754;17.714;2024-02-04T09:12:17;100181.34;;;12.15;68.18
83246;BME280;73140;46.754;17.714;2024-02-04T09:14:43;100164.34;;;11.99;67.53
83246;BME280;73140;46.754;17.714;2024-02-04T09:17:11;100186.75;;;12.24;67.23
83246;BME280;73140;46.754;17.714;2024-02-04T09:19:39;100150.25;;;12.05;68.00
83246;BME280;73140;46.754;17.714;2024-02-04T09:22:05;100131.56;;;11.93;67.31
83246;BME280;73140;46.754;17.714;2024-02-04T09:24:31;100115.72;;;11.96;68.23
83246;BME280;73140;46.754;17.714;2024-02-04T09:26:57;100136.09;;;12.01;66.44
83246;BME280;73140;46.754;17.714;2024-02-04T09:29:23;100127.09;;;11.90;67.70
83246;BME280;73140;46.754;17.714;2024-02-04T09:31:49;100163.47;;;11.99;67.48
83246;BME280;73140;46.754;17.714;2024-02-04T09:34:18;100155.31;;;11.83;68.95
83246;BME280;73140;46.754;17.714;2024-02-04T09:36:44;100180.13;;;11.90;69.47
83246;BME280;73140;46.754;17.714;2024-02-04T09:39:10;100133.78;;;11.65;69.46
83246;BME280;73140;46.754;17.714;2024-02-04T09:41:36;100153.22;;;11.64;69.30
83246;BME280;73140;46.754;17.714;2024-02-04T09:44:04;100220.06;;;12.02;69.65
83246;BME280;73140;46.754;17.714;2024-02-04T09:46:32;100185.06;;;11.69;69.68
83246;BME280;73140;46.754;17.714;2024-02-04T09:48:58;100204.69;;;11.78;69.75
83246;BME280;73140;46.754;17.714;2024-02-04T09:51:26;100171.81;;;11.69;69.12
83246;BME280;73140;46.754;17.714;2024-02-04T09:53:53;100190.34;;;11.64;69.35
83246;BME280;73140;46.754;17.714;2024-02-04T09:56:25;100186.06;;;11.74;69.48
83246;BME280;73140;46.754;17.714;2024-02-04T09:58:51;100130.28;;;11.66;68.70
83246;BME280;73140;46.754;17.714;2024-02-04T10:01:19;100193.03;;;12.29;66.26
83246;BME280;73140;46.754;17.714;2024-02-04T10:03:47;100153.91;;;12.13;66.64
83246;BME280;73140;46.754;17.714;2024-02-04T10:06:13;100128.38;;;12.21;66.25
83246;BME280;73140;46.754;17.714;2024-02-04T10:08:41;100165.72;;;12.38;65.81
83246;BME280;73140;46.754;17.714;2024-02-04T10:11:09;100112.22;;;12.01;66.06
83246;BME280;73140;46.754;17.714;2024-02-04T10:13:42;100162.16;;;12.37;66.06
83246;BME280;73140;46.754;17.714;2024-02-04T10:16:09;100157.81;;;12.42;65.48
83246;BME280;73140;46.754;17.714;2024-02-04T10:18:35;100156.84;;;12.34;66.06
83246;BME280;73140;46.754;17.714;2024-02-04T10:21:01;100157.00;;;12.49;65.63
83246;BME280;73140;46.754;17.714;2024-02-04T10:23:27;100146.28;;;12.40;66.07
83246;BME280;73140;46.754;17.714;2024-02-04T10:25:59;100138.28;;;12.37;66.32
83246;BME280;73140;46.754;17.714;2024-02-04T10:28:25;100151.00;;;12.65;66.75
83246;BME280;73140;46.754;17.714;2024-02-04T10:30:51;100096.63;;;12.27;66.17
83246;BME280;73140;46.754;17.714;2024-02-04T10:33:17;100146.69;;;12.78;64.61
83246;BME280;73140;46.754;17.714;2024-02-04T10:35:43;100121.75;;;12.62;65.28
83246;BME280;73140;46.754;17.714;2024-02-04T10:38:09;100093.25;;;12.43;64.56
83246;BME280;73140;46.754;17.714;2024-02-04T10:40:37;100084.38;;;12.38;65.26
83246;BME280;73140;46.754;17.714;2024-02-04T10:43:04;100137.78;;;12.71;64.68
83246;BME280;73140;46.754;17.714;2024-02-04T10:45:33;100098.72;;;12.58;64.45
83246;BME280;73140;46.754;17.714;2024-02-04T10:48:04;100128.22;;;12.89;65.31
83246;BME280;73140;46.754;17.714;2024-02-04T10:50:32;100105.13;;;12.80;64.87
83246;BME280;73140;46.754;17.714;2024-02-04T10:53:04;100076.81;;;12.80;64.72
83246;BME280;73140;46.754;17.714;2024-02-04T10:55:31;100119.78;;;13.38;64.67
83246;BME280;73140;46.754;17.714;2024-02-04T10:57:59;100084.38;;;13.39;62.09
83246;BME280;73140;46.754;17.714;2024-02-04T11:00:27;100030.13;;;13.10;61.56
83246;BME280;73140;46.754;17.714;2024-02-04T11:02:54;100063.09;;;13.39;60.93
83246;BME280;73140;46.754;17.714;2024-02-04T11:05:21;100040.97;;;13.40;62.10
83246;BME280;73140;46.754;17.714;2024-02-04T11:07:49;100050.75;;;13.47;60.94
83246;BME280;73140;46.754;17.714;2024-02-04T11:10:16;100049.94;;;13.62;61.81
83246;BME280;73140;46.754;17.714;2024-02-04T11:12:45;100072.19;;;13.82;61.09
83246;BME280;73140;46.754;17.714;2024-02-04T11:15:14;100081.94;;;13.85;59.91
83246;BME280;73140;46.754;17.714;2024-02-04T11:18:03;100015.34;;;13.54;59.50
83246;BME280;73140;46.754;17.714;2024-02-04T11:20:48;100066.03;;;14.00;60.68
83246;BME280;73140;46.754;17.714;2024-02-04T11:23:32;100004.88;;;13.95;59.79
83246;BME280;73140;46.754;17.714;2024-02-04T11:26:03;100032.47;;;14.35;59.16
83246;BME280;73140;46.754;17.714;2024-02-04T11:28:31;100050.25;;;14.63;57.21
83246;BME280;73140;46.754;17.714;2024-02-04T11:30:57;100069.78;;;14.82;57.93
83246;BME280;73140;46.754;17.714;2024-02-04T11:33:24;100048.50;;;14.53;57.08
83246;BME280;73140;46.754;17.714;2024-02-04T11:36:00;100048.50;;;14.65;57.88
83246;BME280;73140;46.754;17.714;2024-02-04T11:38:30;100042.25;;;14.39;57.03
83246;BME280;73140;46.754;17.714;2024-02-04T11:40:57;100070.66;;;14.37;58.10
83246;BME280;73140;46.754;17.714;2024-02-04T11:43:23;100047.50;;;14.19;58.16
83246;BME280;73140;46.754;17.714;2024-02-04T11:45:51;100071.41;;;14.09;58.48
83246;BME280;73140;46.754;17.714;2024-02-04T11:48:19;100037.66;;;13.93;59.47
83246;BME280;73140;46.754;17.714;2024-02-04T11:50:54;100053.66;;;14.02;60.40
83246;BME280;73140;46.754;17.714;2024-02-04T11:53:20;100026.16;;;14.00;60.83
83246;BME280;73140;46.754;17.714;2024-02-04T11:55:46;99996.88;;;13.94;61.19
83246;BME280;73140;46.754;17.714;2024-02-04T11:58:12;100019.06;;;13.94;58.91
83246;BME280;73140;46.754;17.714;2024-02-04T12:00:42;100001.34;;;14.08;60.20
83246;BME280;73140;46.754;17.714;2024-02-04T12:03:09;99954.38;;;14.26;60.70
83246;BME280;73140;46.754;17.714;2024-02-04T12:05:35;99996.13;;;14.60;58.32
83246;BME280;73140;46.754;17.714;2024-02-04T12:08:05;99988.16;;;14.61;57.75
83246;BME280;73140;46.754;17.714;2024-02-04T12:10:32;99918.91;;;14.19;57.27
83246;BME280;73140;46.754;17.714;2024-02-04T12:12:59;99991.69;;;14.66;56.42
83246;BME280;73140;46.754;17.714;2024-02-04T12:15:25;99979.25;;;14.62;56.05
83246;BME280;73140;46.754;17.714;2024-02-04T12:17:51;99956.19;;;14.74;55.58
83246;BME280;73140;46.754;17.714;2024-02-04T12:20:17;99975.72;;;14.85;56.16
83246;BME280;73140;46.754;17.714;2024-02-04T12:22:43;99954.41;;;14.70;57.20
83246;BME280;73140;46.754;17.714;2024-02-04T12:25:11;99899.38;;;14.59;55.90
83246;BME280;73140;46.754;17.714;2024-02-04T12:27:37;99909.06;;;14.98;54.97
83246;BME280;73140;46.754;17.714;2024-02-04T12:30:04;99950.66;;;15.46;53.48
83246;BME280;73140;46.754;17.714;2024-02-04T12:32:31;99967.56;;;15.56;53.43
83246;BME280;73140;46.754;17.714;2024-02-04T12:34:57;99952.50;;;15.26;53.50
83246;BME280;73140;46.754;17.714;2024-02-04T12:37:23;99942.75;;;15.24;54.25
83246;BME280;73140;46.754;17.714;2024-02-04T12:39:50;99957.88;;;15.12;54.64
83246;BME280;73140;46.754;17.714;2024-02-04T12:42:17;99940.13;;;15.16;55.61
83246;BME280;73140;46.754;17.714;2024-02-04T12:44:46;99948.09;;;15.21;54.23
83246;BME280;73140;46.754;17.714;2024-02-04T12:47:12;99939.16;;;15.32;55.79